Mekoryuk, Alaska
Current Conditions -  °F | °C
As of 2:16 AM on Friday 28 Nov 2014 (Local Time) from PAMY Reporting Station
Scattered Clouds Scattered Clouds  
Wind Chill: -3°   Ceiling: Unl
Heat Index:   Visibility: 10mi
Dew Point: -3°   Wind: 10mph
Humidity: 75%   Direction: 190°S
Pressure: 29.87"   Gusts: NA
Location:  60.39°N, 166.19°W
Report Text: PAMY 281116Z AUTO 19009KT 10SM SCT043 01/M03 A2987 RMK AO1
Loading
Personal Weather Stations






























Interactive Weather Map New forecast layout! Learn more

10-Day Weather Forecast

Advertisements
Track Severe Weather on mobile